createdAt,value
2022-10-29T00:01:40.902Z,2.78
2022-10-29T00:04:30.288Z,2.50
2022-10-29T00:07:19.653Z,2.75
2022-10-29T00:10:12.639Z,2.88
2022-10-29T00:13:04.072Z,2.25
2022-10-29T00:15:53.358Z,2.50
2022-10-29T00:18:42.770Z,2.40
2022-10-29T00:21:32.286Z,2.50
2022-10-29T00:24:21.728Z,2.63
2022-10-29T00:27:12.141Z,2.40
2022-10-29T00:30:01.569Z,2.67
2022-10-29T00:32:50.900Z,2.45
2022-10-29T00:35:40.587Z,2.90
2022-10-29T00:38:31.596Z,2.63
2022-10-29T00:41:27.436Z,2.47
2022-10-29T00:44:16.845Z,2.55
2022-10-29T00:47:20.898Z,2.60
2022-10-29T00:50:15.332Z,2.55
2022-10-29T00:53:04.972Z,2.60
2022-10-29T00:55:55.278Z,2.60
2022-10-29T00:58:45.736Z,2.53
2022-10-29T01:01:35.383Z,2.47
2022-10-29T01:04:26.380Z,2.75
2022-10-29T01:07:17.195Z,2.70
2022-10-29T01:10:06.858Z,2.90
2022-10-29T01:13:02.739Z,2.92
2022-10-29T01:16:29.444Z,2.95
2022-10-29T01:19:31.817Z,2.60
2022-10-29T01:22:52.041Z,2.63
2022-10-29T01:25:59.980Z,2.95
2022-10-29T01:29:11.165Z,2.53
2022-10-29T01:32:13.187Z,2.40
2022-10-29T01:35:32.902Z,2.60
2022-10-29T01:38:57.208Z,2.88
2022-10-29T01:42:41.682Z,2.53
2022-10-29T01:45:38.421Z,2.50
2022-10-29T01:48:38.670Z,2.42
2022-10-29T01:51:34.604Z,2.60
2022-10-29T01:54:24.513Z,2.58
2022-10-29T01:57:35.890Z,2.40
2022-10-29T02:00:25.874Z,2.25
2022-10-29T02:03:49.863Z,2.38
2022-10-29T02:06:53.773Z,2.42
2022-10-29T02:09:51.729Z,2.67
2022-10-29T02:12:50.280Z,2.58
2022-10-29T02:15:49.558Z,2.50
2022-10-29T02:18:47.537Z,2.80
2022-10-29T02:21:36.878Z,2.67
2022-10-29T02:24:26.712Z,2.90
2022-10-29T02:27:16.188Z,2.83
2022-10-29T02:30:06.770Z,2.97
2022-10-29T02:32:56.306Z,2.60
2022-10-29T02:35:45.692Z,2.60
2022-10-29T02:38:35.044Z,2.72
2022-10-29T02:41:24.756Z,2.80
2022-10-29T02:44:14.328Z,2.92
2022-10-29T02:47:03.577Z,2.70
2022-10-29T02:49:52.924Z,2.95
2022-10-29T02:52:42.237Z,2.75
2022-10-29T02:55:31.532Z,2.90
2022-10-29T03:01:10.918Z,2.83
2022-10-29T03:04:00.432Z,2.70
2022-10-29T03:06:50.149Z,2.65
2022-10-29T03:09:39.414Z,2.72
2022-10-29T03:12:28.757Z,2.78
2022-10-29T03:15:18.077Z,2.90
2022-10-29T03:18:07.564Z,2.83
2022-10-29T03:20:57.170Z,3.28
2022-10-29T03:23:46.436Z,3.00
2022-10-29T03:26:35.968Z,3.30
2022-10-29T03:29:25.465Z,2.90
2022-10-29T03:32:14.845Z,3.03
2022-10-29T03:35:04.010Z,2.85
2022-10-29T03:37:54.618Z,3.00
2022-10-29T03:40:45.617Z,3.00
2022-10-29T03:43:34.925Z,2.85
2022-10-29T03:46:24.190Z,2.97
2022-10-29T03:49:13.941Z,2.70
2022-10-29T03:52:03.193Z,2.90
2022-10-29T03:54:52.916Z,3.30
2022-10-29T03:57:42.489Z,3.20
2022-10-29T04:00:31.884Z,3.00
2022-10-29T04:03:21.144Z,3.33
2022-10-29T04:06:15.505Z,3.05
2022-10-29T04:09:04.880Z,2.70
2022-10-29T04:11:54.271Z,3.13
2022-10-29T04:14:45.683Z,3.17
2022-10-29T04:17:35.163Z,3.15
2022-10-29T04:20:43.332Z,3.30
2022-10-29T04:29:56.521Z,3.40
2022-10-29T04:32:46.102Z,3.17
2022-10-29T04:35:35.594Z,3.30
2022-10-29T04:38:25.213Z,3.47
2022-10-29T04:41:14.553Z,3.20
2022-10-29T04:44:04.577Z,3.38
2022-10-29T04:46:53.969Z,3.20
2022-10-29T04:49:43.802Z,3.47
2022-10-29T04:52:33.240Z,3.30
2022-10-29T04:55:25.516Z,3.58
2022-10-29T04:58:20.564Z,3.45
2022-10-29T05:01:09.993Z,3.35
2022-10-29T05:04:00.177Z,3.30
2022-10-29T05:06:49.909Z,3.20
2022-10-29T05:09:39.364Z,3.30
2022-10-29T05:12:28.872Z,3.70
2022-10-29T05:15:18.232Z,3.80
2022-10-29T05:18:08.265Z,3.60
2022-10-29T05:20:58.464Z,3.35
2022-10-29T05:23:47.796Z,3.60
2022-10-29T05:26:37.136Z,3.38
2022-10-29T05:29:26.726Z,3.53
2022-10-29T05:32:16.077Z,3.80
2022-10-29T05:35:06.015Z,4.05
2022-10-29T05:37:57.064Z,3.80
2022-10-29T05:40:46.729Z,3.63
2022-10-29T05:43:36.150Z,3.72
2022-10-29T05:46:25.436Z,3.85
2022-10-29T05:49:14.750Z,3.65
2022-10-29T05:52:03.980Z,3.90
2022-10-29T05:54:53.444Z,4.00
2022-10-29T05:57:42.797Z,3.92
2022-10-29T06:00:35.192Z,3.90
2022-10-29T06:03:24.819Z,3.70
2022-10-29T06:06:14.200Z,4.03
2022-10-29T06:09:03.788Z,3.97
2022-10-29T06:11:53.116Z,4.28
2022-10-29T06:14:42.404Z,4.13
2022-10-29T06:17:31.844Z,3.88
2022-10-29T06:20:22.915Z,4.18
2022-10-29T06:23:13.266Z,3.90
2022-10-29T06:26:02.835Z,3.90
2022-10-29T06:28:52.551Z,3.80
2022-10-29T06:31:41.933Z,4.30
2022-10-29T06:34:31.270Z,4.30
2022-10-29T06:37:20.833Z,4.47
2022-10-29T06:40:10.744Z,4.10
2022-10-29T06:43:01.522Z,4.43
2022-10-29T06:45:51.676Z,4.50
2022-10-29T06:48:41.149Z,4.30
2022-10-29T06:51:30.888Z,4.65
2022-10-29T06:54:20.403Z,4.63
2022-10-29T06:57:09.878Z,4.22
2022-10-29T07:00:02.400Z,4.45
2022-10-29T07:02:55.815Z,4.50
2022-10-29T07:05:45.616Z,4.50
2022-10-29T07:08:34.965Z,4.47
2022-10-29T07:11:24.319Z,4.32
2022-10-29T07:14:16.799Z,4.28
2022-10-29T07:17:06.288Z,3.88
2022-10-29T07:19:55.662Z,4.18
2022-10-29T07:22:48.377Z,4.32
2022-10-29T07:25:39.611Z,5.15
2022-10-29T07:28:29.064Z,4.50
2022-10-29T07:31:18.743Z,4.50
2022-10-29T07:34:08.336Z,4.50
2022-10-29T07:36:57.933Z,4.90
2022-10-29T07:39:47.491Z,4.88
2022-10-29T07:42:36.805Z,4.97
2022-10-29T07:45:26.331Z,4.60
2022-10-29T07:48:15.835Z,5.07
2022-10-29T07:51:05.395Z,4.55
2022-10-29T07:53:54.805Z,4.97
2022-10-29T07:56:47.866Z,5.63
2022-10-29T07:59:37.248Z,4.80
2022-10-29T08:02:26.964Z,5.13
2022-10-29T08:05:16.604Z,5.30
2022-10-29T08:08:07.026Z,4.80
2022-10-29T08:11:02.321Z,5.60
2022-10-29T08:13:51.663Z,5.32
2022-10-29T08:16:40.978Z,5.43
2022-10-29T08:19:31.125Z,5.00
2022-10-29T08:22:20.444Z,5.03
2022-10-29T08:25:10.744Z,4.70
2022-10-29T08:28:05.744Z,5.28
2022-10-29T08:30:55.136Z,5.05
2022-10-29T08:33:45.844Z,5.85
2022-10-29T08:36:35.135Z,4.95
2022-10-29T08:39:24.696Z,6.15
2022-10-29T08:42:44.456Z,5.72
2022-10-29T08:45:48.139Z,5.38
2022-10-29T08:48:48.658Z,5.90
2022-10-29T08:51:45.372Z,5.05
2022-10-29T08:54:40.019Z,5.25
2022-10-29T08:57:34.651Z,5.22
2022-10-29T09:00:33.205Z,5.45
2022-10-29T09:03:22.859Z,5.30
2022-10-29T09:06:16.873Z,5.82
2022-10-29T09:09:23.277Z,5.38
2022-10-29T09:12:37.678Z,5.65
2022-10-29T09:15:57.155Z,5.78
2022-10-29T09:18:47.094Z,5.32
2022-10-29T09:22:06.427Z,5.85
2022-10-29T09:25:19.816Z,5.18
2022-10-29T09:31:18.433Z,5.18
2022-10-29T09:34:21.109Z,5.47
2022-10-29T09:37:21.684Z,5.70
2022-10-29T09:40:17.924Z,5.38
2022-10-29T09:43:32.612Z,6.07
2022-10-29T09:46:40.460Z,5.60
2022-10-29T09:50:11.234Z,5.70
2022-10-29T09:53:01.075Z,6.00
2022-10-29T09:55:55.005Z,5.50
2022-10-29T09:58:48.555Z,5.55
2022-10-29T10:01:38.183Z,6.38
2022-10-29T10:04:46.604Z,5.97
2022-10-29T10:07:35.933Z,6.13
2022-10-29T10:10:26.313Z,6.40
2022-10-29T10:13:17.684Z,6.63
2022-10-29T10:16:08.757Z,6.10
2022-10-29T10:18:58.082Z,6.20
2022-10-29T10:21:59.324Z,6.43
2022-10-29T10:24:48.744Z,6.32
2022-10-29T10:27:38.211Z,6.03
2022-10-29T10:30:27.968Z,6.07
2022-10-29T10:33:28.406Z,6.60
2022-10-29T10:36:18.390Z,6.47
2022-10-29T10:39:22.680Z,6.72
2022-10-29T10:42:30.127Z,6.60
2022-10-29T10:45:26.804Z,6.10
2022-10-29T10:48:19.073Z,6.50
2022-10-29T10:51:27.659Z,6.40
2022-10-29T10:54:40.791Z,6.50
2022-10-29T10:57:44.317Z,5.97
2022-10-29T11:00:41.054Z,6.13
2022-10-29T11:03:53.448Z,6.35
2022-10-29T11:06:47.820Z,6.55
2022-10-29T11:09:46.965Z,6.63
2022-10-29T11:12:43.295Z,6.45
2022-10-29T11:15:44.758Z,6.70
2022-10-29T11:18:42.844Z,6.43
2022-10-29T11:21:40.685Z,6.70
2022-10-29T11:25:01.496Z,6.13
2022-10-29T11:27:57.708Z,5.95
2022-10-29T11:30:56.300Z,6.85
2022-10-29T11:34:14.497Z,5.95
2022-10-29T11:37:30.282Z,7.05
2022-10-29T11:40:28.603Z,6.70
2022-10-29T11:43:22.368Z,6.03
2022-10-29T11:46:34.580Z,6.43
2022-10-29T11:49:42.261Z,6.47
2022-10-29T11:52:48.452Z,6.63
2022-10-29T11:55:55.330Z,6.35
2022-10-29T11:58:55.786Z,6.78
2022-10-29T12:01:59.908Z,6.32
2022-10-29T12:04:57.629Z,7.18
2022-10-29T12:07:58.737Z,6.50
2022-10-29T12:11:00.261Z,6.35
2022-10-29T12:13:58.260Z,7.68
2022-10-29T12:16:51.423Z,6.22
2022-10-29T12:20:01.221Z,6.85
2022-10-29T12:22:55.807Z,6.65
2022-10-29T12:26:02.988Z,6.63
2022-10-29T12:29:12.665Z,6.72
2022-10-29T12:32:11.936Z,6.80
2022-10-29T12:35:30.404Z,6.80
2022-10-29T12:38:31.765Z,7.05
2022-10-29T12:41:23.999Z,6.40
2022-10-29T12:44:34.685Z,6.20
2022-10-29T12:47:39.722Z,6.90
2022-10-29T12:50:40.748Z,6.53
2022-10-29T12:53:40.331Z,6.80
2022-10-29T12:56:31.078Z,7.40
2022-10-29T12:59:26.667Z,7.15
2022-10-29T13:02:40.421Z,6.47
2022-10-29T13:05:40.452Z,6.60
2022-10-29T13:08:35.391Z,6.80
2022-10-29T13:11:43.618Z,6.80
2022-10-29T13:15:04.636Z,6.97
2022-10-29T13:17:56.424Z,6.70
2022-10-29T13:20:50.555Z,6.25
2022-10-29T13:23:41.697Z,6.53
2022-10-29T13:26:57.445Z,6.40
2022-10-29T13:29:49.204Z,6.43
2022-10-29T13:32:40.390Z,6.78
2022-10-29T13:35:30.076Z,6.43
2022-10-29T13:38:19.776Z,6.50
2022-10-29T13:41:13.245Z,6.75
2022-10-29T13:44:23.524Z,7.03
2022-10-29T13:47:23.057Z,6.90
2022-10-29T13:50:16.667Z,6.90
2022-10-29T13:53:13.647Z,5.72
2022-10-29T13:56:03.724Z,6.13
2022-10-29T13:58:55.436Z,6.85
2022-10-29T14:01:58.845Z,6.72
2022-10-29T14:04:53.684Z,6.50
2022-10-29T14:08:10.146Z,6.78
2022-10-29T14:11:02.292Z,6.18
2022-10-29T14:13:55.468Z,6.23
2022-10-29T14:19:33.836Z,6.60
2022-10-29T14:22:43.534Z,5.82
2022-10-29T14:25:37.111Z,5.90
2022-10-29T14:28:34.112Z,6.53
2022-10-29T14:31:25.756Z,6.47
2022-10-29T14:34:29.208Z,5.78
2022-10-29T14:40:25.810Z,5.97
2022-10-29T14:43:26.964Z,5.55
2022-10-29T14:46:26.519Z,5.80
2022-10-29T14:49:27.757Z,6.15
2022-10-29T14:52:31.242Z,6.03
2022-10-29T14:55:29.671Z,5.72
2022-10-29T15:01:21.706Z,6.10
2022-10-29T15:04:23.020Z,5.88
2022-10-29T15:07:23.730Z,5.93
2022-10-29T15:10:13.442Z,5.60
2022-10-29T15:13:20.847Z,6.15
2022-10-29T15:16:18.571Z,6.15
2022-10-29T15:19:13.624Z,5.88
2022-10-29T15:22:08.919Z,5.93
2022-10-29T15:24:58.596Z,5.85
2022-10-29T15:27:50.164Z,5.90
2022-10-29T15:30:40.719Z,5.78
2022-10-29T15:33:32.286Z,6.00
2022-10-29T15:36:21.933Z,5.80
2022-10-29T15:39:21.959Z,6.15
2022-10-29T15:42:22.396Z,5.68
2022-10-29T15:45:17.784Z,5.72
2022-10-29T15:48:09.900Z,5.40
2022-10-29T15:50:59.276Z,5.45
2022-10-29T15:53:48.673Z,5.30
2022-10-29T15:56:38.060Z,5.85
2022-10-29T15:59:28.112Z,5.75
2022-10-29T16:02:24.307Z,5.20
2022-10-29T16:05:15.668Z,5.50
2022-10-29T16:08:05.471Z,5.32
2022-10-29T16:10:56.054Z,5.47
2022-10-29T16:13:46.348Z,5.80
2022-10-29T16:16:38.520Z,5.32
2022-10-29T16:19:27.752Z,5.65
2022-10-29T16:22:25.991Z,5.60
2022-10-29T16:25:28.175Z,5.43
2022-10-29T16:28:17.717Z,5.30
2022-10-29T16:31:22.571Z,5.97
2022-10-29T16:34:19.481Z,5.20
2022-10-29T16:37:17.044Z,5.75
2022-10-29T16:40:08.428Z,5.60
2022-10-29T16:42:58.801Z,5.18
2022-10-29T16:45:48.651Z,5.45
2022-10-29T16:48:38.903Z,4.68
2022-10-29T16:51:29.679Z,5.05
2022-10-29T16:54:19.217Z,5.30
2022-10-29T16:57:08.653Z,5.28
2022-10-29T16:59:58.371Z,5.35
2022-10-29T17:02:48.230Z,5.07
2022-10-29T17:05:45.492Z,5.32
2022-10-29T17:08:35.732Z,5.30
2022-10-29T17:11:25.273Z,4.78
2022-10-29T17:14:14.796Z,4.95
2022-10-29T17:17:04.130Z,5.30
2022-10-29T17:19:54.812Z,5.60
2022-10-29T17:22:44.289Z,5.10
2022-10-29T17:25:33.580Z,5.25
2022-10-29T17:28:24.437Z,5.22
2022-10-29T17:31:13.804Z,4.80
2022-10-29T17:34:03.073Z,4.90
2022-10-29T17:36:54.405Z,5.13
2022-10-29T17:39:43.800Z,4.65
2022-10-29T17:42:33.082Z,5.45
2022-10-29T17:45:23.777Z,4.78
2022-10-29T17:48:13.126Z,5.03
2022-10-29T17:51:04.179Z,4.70
2022-10-29T17:53:53.604Z,5.00
2022-10-29T17:56:46.736Z,4.75
2022-10-29T17:59:36.092Z,5.30
2022-10-29T18:02:25.575Z,5.22
2022-10-29T18:05:15.693Z,5.30
2022-10-29T18:08:05.290Z,5.30
2022-10-29T18:10:58.569Z,4.85
2022-10-29T18:13:49.226Z,5.38
2022-10-29T18:16:38.604Z,4.75
2022-10-29T18:19:28.015Z,5.05
2022-10-29T18:22:17.516Z,5.22
2022-10-29T18:25:07.705Z,5.07
2022-10-29T18:27:57.733Z,4.97
2022-10-29T18:30:47.196Z,4.95
2022-10-29T18:33:36.569Z,4.80
2022-10-29T18:36:26.077Z,4.90
2022-10-29T18:39:15.373Z,4.60
2022-10-29T18:42:05.153Z,4.72
2022-10-29T18:44:54.503Z,5.25
2022-10-29T18:47:43.964Z,4.30
2022-10-29T18:50:33.612Z,4.85
2022-10-29T18:53:23.197Z,4.82
2022-10-29T18:56:15.162Z,5.00
2022-10-29T18:59:04.481Z,4.95
2022-10-29T19:01:54.062Z,4.57
2022-10-29T19:04:43.662Z,4.78
2022-10-29T19:07:33.229Z,5.00
2022-10-29T19:10:22.929Z,4.90
2022-10-29T19:13:12.669Z,4.30
2022-10-29T19:16:03.804Z,4.60
2022-10-29T19:19:01.686Z,4.50
2022-10-29T19:21:51.156Z,4.30
2022-10-29T19:24:40.577Z,4.88
2022-10-29T19:27:30.164Z,4.45
2022-10-29T19:30:19.910Z,4.63
2022-10-29T19:33:09.901Z,4.25
2022-10-29T19:36:00.150Z,4.78
2022-10-29T19:38:50.245Z,4.47
2022-10-29T19:41:39.634Z,4.63
2022-10-29T19:44:29.117Z,4.35
2022-10-29T19:47:18.806Z,4.55
2022-10-29T19:50:09.478Z,4.40
2022-10-29T19:52:59.161Z,5.05
2022-10-29T19:55:51.502Z,4.45
2022-10-29T19:58:40.923Z,4.50
2022-10-29T20:01:30.479Z,3.92
2022-10-29T20:04:20.254Z,4.25
2022-10-29T20:07:09.631Z,3.90
2022-10-29T20:09:59.130Z,4.40
2022-10-29T20:12:48.530Z,4.18
2022-10-29T20:15:41.196Z,4.00
2022-10-29T20:18:30.540Z,3.90
2022-10-29T20:21:20.400Z,4.28
2022-10-29T20:24:09.845Z,4.47
2022-10-29T20:26:59.333Z,4.03
2022-10-29T20:29:48.941Z,3.97
2022-10-29T20:32:38.636Z,4.45
2022-10-29T20:35:28.204Z,4.35
2022-10-29T20:38:17.678Z,4.07
2022-10-29T20:41:07.116Z,4.03
2022-10-29T20:43:58.803Z,4.65
2022-10-29T20:46:48.433Z,3.85
2022-10-29T20:49:37.903Z,4.22
2022-10-29T20:52:27.315Z,4.50
2022-10-29T20:55:16.927Z,4.30
2022-10-29T20:58:06.717Z,4.13
2022-10-29T21:00:56.607Z,4.32
2022-10-29T21:03:46.353Z,3.95
2022-10-29T21:06:35.709Z,4.30
2022-10-29T21:09:25.029Z,4.80
2022-10-29T21:12:14.552Z,4.70
2022-10-29T21:15:04.046Z,3.70
2022-10-29T21:17:53.552Z,4.10
2022-10-29T21:20:42.972Z,4.65
2022-10-29T21:23:33.102Z,4.43
2022-10-29T21:26:24.412Z,4.07
2022-10-29T21:29:13.757Z,4.20
2022-10-29T21:32:03.082Z,4.20
2022-10-29T21:34:52.419Z,3.83
2022-10-29T21:37:42.004Z,4.40
2022-10-29T21:40:31.269Z,4.60
2022-10-29T21:43:23.041Z,4.70
2022-10-29T21:46:12.524Z,4.13
2022-10-29T21:49:01.956Z,4.25
2022-10-29T21:51:51.532Z,4.30
2022-10-29T21:54:41.146Z,4.32
2022-10-29T21:57:30.718Z,4.20
2022-10-29T22:00:20.910Z,4.20
2022-10-29T22:03:10.472Z,4.10
2022-10-29T22:06:06.243Z,3.92
2022-10-29T22:08:57.456Z,4.25
2022-10-29T22:11:47.205Z,4.20
2022-10-29T22:14:36.782Z,4.20
2022-10-29T22:17:28.658Z,4.13
2022-10-29T22:20:18.049Z,3.67
2022-10-29T22:23:07.546Z,4.20
2022-10-29T22:25:57.057Z,4.00
2022-10-29T22:28:48.159Z,3.78
2022-10-29T22:31:37.541Z,4.07
2022-10-29T22:34:26.957Z,4.15
2022-10-29T22:37:16.245Z,4.03
2022-10-29T22:40:05.923Z,3.80
2022-10-29T22:42:55.711Z,4.00
2022-10-29T22:45:47.376Z,4.28
2022-10-29T22:48:37.258Z,4.05
2022-10-29T22:51:29.963Z,3.67
2022-10-29T22:54:19.356Z,4.05
2022-10-29T22:57:09.190Z,4.15
2022-10-29T22:59:58.658Z,4.15
2022-10-29T23:02:48.249Z,4.20
2022-10-29T23:05:37.596Z,3.90
2022-10-29T23:08:27.753Z,4.20
2022-10-29T23:11:22.873Z,3.85
2022-10-29T23:14:12.246Z,3.78
2022-10-29T23:17:02.062Z,3.60
2022-10-29T23:19:51.585Z,4.00
2022-10-29T23:22:41.079Z,3.90
2022-10-29T23:25:30.565Z,3.78
2022-10-29T23:28:20.160Z,3.47
2022-10-29T23:31:15.750Z,4.13
2022-10-29T23:34:05.169Z,3.80
2022-10-29T23:36:55.201Z,4.07
2022-10-29T23:39:44.496Z,3.90
2022-10-29T23:42:34.174Z,3.38
2022-10-29T23:45:23.663Z,3.72
2022-10-29T23:48:13.422Z,3.70
2022-10-29T23:51:03.003Z,3.97
2022-10-29T23:53:54.915Z,3.72
2022-10-29T23:56:47.080Z,3.67
2022-10-29T23:59:36.494Z,3.70
